sensor_id;sensor_type;location;lat;lon;timestamp;temperature;humidity
5621;DHT22;2832;50.864;12.186;2023-08-31T00:00:45;19.80;99.90
5621;DHT22;2832;50.864;12.186;2023-08-31T00:03:17;19.70;99.90
5621;DHT22;2832;50.864;12.186;2023-08-31T00:05:48;19.80;99.90
5621;DHT22;2832;50.864;12.186;2023-08-31T00:08:18;19.70;99.90
5621;DHT22;2832;50.864;12.186;2023-08-31T00:10:55;19.80;99.90
5621;DHT22;2832;50.864;12.186;2023-08-31T00:13:24;19.80;99.90
5621;DHT22;2832;50.864;12.186;2023-08-31T00:16:04;19.80;99.90
5621;DHT22;2832;50.864;12.186;2023-08-31T00:18:33;19.80;99.90
5621;DHT22;2832;50.864;12.186;2023-08-31T00:21:03;19.80;99.90
5621;DHT22;2832;50.864;12.186;2023-08-31T00:23:33;19.70;99.90
5621;DHT22;2832;50.864;12.186;2023-08-31T00:26:02;19.80;99.90
5621;DHT22;2832;50.864;12.186;2023-08-31T00:28:32;19.70;99.90
5621;DHT22;2832;50.864;12.186;2023-08-31T00:31:02;19.70;99.90
5621;DHT22;2832;50.864;12.186;2023-08-31T00:33:32;19.70;99.90
5621;DHT22;2832;50.864;12.186;2023-08-31T00:36:06;19.70;99.90
5621;DHT22;2832;50.864;12.186;2023-08-31T00:38:35;19.60;99.90
5621;DHT22;2832;50.864;12.186;2023-08-31T00:41:05;19.70;99.90
5621;DHT22;2832;50.864;12.186;2023-08-31T00:43:34;19.70;99.90
5621;DHT22;2832;50.864;12.186;2023-08-31T00:46:03;19.70;99.90
5621;DHT22;2832;50.864;12.186;2023-08-31T00:48:32;19.60;99.90
5621;DHT22;2832;50.864;12.186;2023-08-31T00:51:06;19.70;99.90
5621;DHT22;2832;50.864;12.186;2023-08-31T00:53:37;19.70;99.90
5621;DHT22;2832;50.864;12.186;2023-08-31T00:56:06;19.70;99.90
5621;DHT22;2832;50.864;12.186;2023-08-31T00:58:34;19.70;99.90
5621;DHT22;2832;50.864;12.186;2023-08-31T01:01:08;19.60;99.90
5621;DHT22;2832;50.864;12.186;2023-08-31T01:03:47;19.70;99.90
5621;DHT22;2832;50.864;12.186;2023-08-31T01:06:27;19.60;99.90
5621;DHT22;2832;50.864;12.186;2023-08-31T01:09:01;19.60;99.90
5621;DHT22;2832;50.864;12.186;2023-08-31T01:11:40;19.60;99.90
5621;DHT22;2832;50.864;12.186;2023-08-31T01:14:16;19.60;99.90
5621;DHT22;2832;50.864;12.186;2023-08-31T01:16:48;19.60;99.90
5621;DHT22;2832;50.864;12.186;2023-08-31T01:19:29;19.60;99.90
5621;DHT22;2832;50.864;12.186;2023-08-31T01:22:03;19.60;99.90
5621;DHT22;2832;50.864;12.186;2023-08-31T01:24:37;19.60;99.90
5621;DHT22;2832;50.864;12.186;2023-08-31T01:27:09;19.60;99.90
5621;DHT22;2832;50.864;12.186;2023-08-31T01:29:41;19.60;99.90
5621;DHT22;2832;50.864;12.186;2023-08-31T01:32:12;19.50;99.90
5621;DHT22;2832;50.864;12.186;2023-08-31T01:34:42;19.50;99.90
5621;DHT22;2832;50.864;12.186;2023-08-31T01:37:16;19.50;99.90
5621;DHT22;2832;50.864;12.186;2023-08-31T01:39:52;19.50;99.90
5621;DHT22;2832;50.864;12.186;2023-08-31T01:42:26;19.50;99.90
5621;DHT22;2832;50.864;12.186;2023-08-31T01:44:57;19.50;99.90
5621;DHT22;2832;50.864;12.186;2023-08-31T01:47:27;19.50;99.90
5621;DHT22;2832;50.864;12.186;2023-08-31T01:49:55;19.50;99.90
5621;DHT22;2832;50.864;12.186;2023-08-31T01:52:28;19.40;99.90
5621;DHT22;2832;50.864;12.186;2023-08-31T01:54:58;19.40;99.90
5621;DHT22;2832;50.864;12.186;2023-08-31T01:57:26;19.40;99.90
5621;DHT22;2832;50.864;12.186;2023-08-31T01:59:55;19.40;99.90
5621;DHT22;2832;50.864;12.186;2023-08-31T02:02:23;19.40;99.90
5621;DHT22;2832;50.864;12.186;2023-08-31T02:04:52;19.40;99.90
5621;DHT22;2832;50.864;12.186;2023-08-31T02:09:53;19.30;99.90
5621;DHT22;2832;50.864;12.186;2023-08-31T02:12:24;19.30;99.90
5621;DHT22;2832;50.864;12.186;2023-08-31T02:15:10;19.30;99.90
5621;DHT22;2832;50.864;12.186;2023-08-31T02:17:44;19.40;99.90
5621;DHT22;2832;50.864;12.186;2023-08-31T02:20:13;19.30;99.90
5621;DHT22;2832;50.864;12.186;2023-08-31T02:22:43;19.30;99.90
5621;DHT22;2832;50.864;12.186;2023-08-31T02:25:12;19.30;99.90
5621;DHT22;2832;50.864;12.186;2023-08-31T02:27:41;19.30;99.90
5621;DHT22;2832;50.864;12.186;2023-08-31T02:30:10;19.30;99.90
5621;DHT22;2832;50.864;12.186;2023-08-31T02:32:38;19.30;99.90
5621;DHT22;2832;50.864;12.186;2023-08-31T02:35:06;19.30;99.90
5621;DHT22;2832;50.864;12.186;2023-08-31T02:37:34;19.30;99.90
5621;DHT22;2832;50.864;12.186;2023-08-31T02:40:03;19.30;99.90
5621;DHT22;2832;50.864;12.186;2023-08-31T02:42:32;19.20;99.90
5621;DHT22;2832;50.864;12.186;2023-08-31T02:45:03;19.20;99.90
5621;DHT22;2832;50.864;12.186;2023-08-31T02:47:35;19.20;99.90
5621;DHT22;2832;50.864;12.186;2023-08-31T02:50:05;19.20;99.90
5621;DHT22;2832;50.864;12.186;2023-08-31T02:52:34;19.20;99.90
5621;DHT22;2832;50.864;12.186;2023-08-31T02:55:03;19.20;99.90
5621;DHT22;2832;50.864;12.186;2023-08-31T02:57:32;19.20;99.90
5621;DHT22;2832;50.864;12.186;2023-08-31T03:00:05;19.20;99.90
5621;DHT22;2832;50.864;12.186;2023-08-31T03:02:40;19.20;99.90
5621;DHT22;2832;50.864;12.186;2023-08-31T03:05:12;19.20;99.90
5621;DHT22;2832;50.864;12.186;2023-08-31T03:07:41;19.20;99.90
5621;DHT22;2832;50.864;12.186;2023-08-31T03:10:09;19.20;99.90
5621;DHT22;2832;50.864;12.186;2023-08-31T03:12:38;19.20;99.90
5621;DHT22;2832;50.864;12.186;2023-08-31T03:15:08;19.20;99.90
5621;DHT22;2832;50.864;12.186;2023-08-31T03:17:36;19.20;99.90
5621;DHT22;2832;50.864;12.186;2023-08-31T03:20:06;19.20;99.90
5621;DHT22;2832;50.864;12.186;2023-08-31T03:22:36;19.20;99.90
5621;DHT22;2832;50.864;12.186;2023-08-31T03:25:05;19.20;99.90
5621;DHT22;2832;50.864;12.186;2023-08-31T03:27:33;19.20;99.90
5621;DHT22;2832;50.864;12.186;2023-08-31T03:30:02;19.20;99.90
5621;DHT22;2832;50.864;12.186;2023-08-31T03:32:32;19.10;99.90
5621;DHT22;2832;50.864;12.186;2023-08-31T03:35:01;19.10;99.90
5621;DHT22;2832;50.864;12.186;2023-08-31T03:37:32;19.10;99.90
5621;DHT22;2832;50.864;12.186;2023-08-31T03:40:05;19.10;99.90
5621;DHT22;2832;50.864;12.186;2023-08-31T03:42:40;19.10;99.90
5621;DHT22;2832;50.864;12.186;2023-08-31T03:45:15;19.10;99.90
5621;DHT22;2832;50.864;12.186;2023-08-31T03:47:47;19.10;99.90
5621;DHT22;2832;50.864;12.186;2023-08-31T03:50:15;19.10;99.90
5621;DHT22;2832;50.864;12.186;2023-08-31T03:52:44;19.10;99.90
5621;DHT22;2832;50.864;12.186;2023-08-31T03:55:12;19.10;99.90
5621;DHT22;2832;50.864;12.186;2023-08-31T03:57:39;19.10;99.90
5621;DHT22;2832;50.864;12.186;2023-08-31T04:00:10;19.10;99.90
5621;DHT22;2832;50.864;12.186;2023-08-31T04:02:48;19.10;99.90
5621;DHT22;2832;50.864;12.186;2023-08-31T04:05:19;19.10;99.90
5621;DHT22;2832;50.864;12.186;2023-08-31T04:07:51;19.00;99.90
5621;DHT22;2832;50.864;12.186;2023-08-31T04:10:23;19.10;99.90
5621;DHT22;2832;50.864;12.186;2023-08-31T04:13:01;19.00;99.90
5621;DHT22;2832;50.864;12.186;2023-08-31T04:15:29;19.00;99.90
5621;DHT22;2832;50.864;12.186;2023-08-31T04:17:58;19.00;99.90
5621;DHT22;2832;50.864;12.186;2023-08-31T04:20:28;19.00;99.90
5621;DHT22;2832;50.864;12.186;2023-08-31T04:22:58;19.00;99.90
5621;DHT22;2832;50.864;12.186;2023-08-31T04:25:29;19.00;99.90
5621;DHT22;2832;50.864;12.186;2023-08-31T04:27:57;19.00;99.90
5621;DHT22;2832;50.864;12.186;2023-08-31T04:30:26;19.00;99.90
5621;DHT22;2832;50.864;12.186;2023-08-31T04:32:54;19.00;99.90
5621;DHT22;2832;50.864;12.186;2023-08-31T04:35:24;19.00;99.90
5621;DHT22;2832;50.864;12.186;2023-08-31T04:37:55;18.90;99.90
5621;DHT22;2832;50.864;12.186;2023-08-31T04:40:25;19.00;99.90
5621;DHT22;2832;50.864;12.186;2023-08-31T04:42:57;19.00;99.90
5621;DHT22;2832;50.864;12.186;2023-08-31T04:45:38;19.00;99.90
5621;DHT22;2832;50.864;12.186;2023-08-31T04:48:09;18.90;99.90
5621;DHT22;2832;50.864;12.186;2023-08-31T04:50:39;18.90;99.90
5621;DHT22;2832;50.864;12.186;2023-08-31T04:53:08;18.90;99.90
5621;DHT22;2832;50.864;12.186;2023-08-31T04:55:38;18.90;99.90
5621;DHT22;2832;50.864;12.186;2023-08-31T04:58:07;18.90;99.90
5621;DHT22;2832;50.864;12.186;2023-08-31T05:00:38;18.90;99.90
5621;DHT22;2832;50.864;12.186;2023-08-31T05:03:06;18.90;99.90
5621;DHT22;2832;50.864;12.186;2023-08-31T05:05:36;18.90;99.90
5621;DHT22;2832;50.864;12.186;2023-08-31T05:08:10;18.90;99.90
5621;DHT22;2832;50.864;12.186;2023-08-31T05:10:42;18.90;99.90
5621;DHT22;2832;50.864;12.186;2023-08-31T05:13:16;18.90;99.90
5621;DHT22;2832;50.864;12.186;2023-08-31T05:15:53;18.90;99.90
5621;DHT22;2832;50.864;12.186;2023-08-31T05:18:36;18.90;99.90
5621;DHT22;2832;50.864;12.186;2023-08-31T05:21:12;18.80;99.90
5621;DHT22;2832;50.864;12.186;2023-08-31T05:23:42;18.90;99.90
5621;DHT22;2832;50.864;12.186;2023-08-31T05:26:10;18.80;99.90
5621;DHT22;2832;50.864;12.186;2023-08-31T05:28:38;18.80;99.90
5621;DHT22;2832;50.864;12.186;2023-08-31T05:31:06;18.80;99.90
5621;DHT22;2832;50.864;12.186;2023-08-31T05:33:35;18.80;99.90
5621;DHT22;2832;50.864;12.186;2023-08-31T05:36:03;18.80;99.90
5621;DHT22;2832;50.864;12.186;2023-08-31T05:38:31;18.80;99.90
5621;DHT22;2832;50.864;12.186;2023-08-31T05:41:12;18.80;99.90
5621;DHT22;2832;50.864;12.186;2023-08-31T05:43:48;18.80;99.90
5621;DHT22;2832;50.864;12.186;2023-08-31T05:46:22;18.80;99.90
5621;DHT22;2832;50.864;12.186;2023-08-31T05:48:51;18.80;99.90
5621;DHT22;2832;50.864;12.186;2023-08-31T05:51:23;18.80;99.90
5621;DHT22;2832;50.864;12.186;2023-08-31T05:53:58;18.90;99.90
5621;DHT22;2832;50.864;12.186;2023-08-31T05:56:33;18.90;99.90
5621;DHT22;2832;50.864;12.186;2023-08-31T05:59:02;18.80;99.90
5621;DHT22;2832;50.864;12.186;2023-08-31T06:01:34;18.80;99.90
5621;DHT22;2832;50.864;12.186;2023-08-31T06:04:08;18.80;99.90
5621;DHT22;2832;50.864;12.186;2023-08-31T06:06:36;18.90;99.90
5621;DHT22;2832;50.864;12.186;2023-08-31T06:09:05;18.90;99.90
5621;DHT22;2832;50.864;12.186;2023-08-31T06:11:34;19.00;99.90
5621;DHT22;2832;50.864;12.186;2023-08-31T06:14:02;19.00;99.90
5621;DHT22;2832;50.864;12.186;2023-08-31T06:16:30;18.90;99.90
5621;DHT22;2832;50.864;12.186;2023-08-31T06:19:03;18.90;99.90
5621;DHT22;2832;50.864;12.186;2023-08-31T06:21:49;18.90;99.90
5621;DHT22;2832;50.864;12.186;2023-08-31T06:24:21;18.90;99.90
5621;DHT22;2832;50.864;12.186;2023-08-31T06:26:58;18.80;99.90
5621;DHT22;2832;50.864;12.186;2023-08-31T06:29:41;18.80;99.90
5621;DHT22;2832;50.864;12.186;2023-08-31T06:32:19;18.80;99.90
5621;DHT22;2832;50.864;12.186;2023-08-31T06:35:14;18.80;99.90
5621;DHT22;2832;50.864;12.186;2023-08-31T06:37:50;18.80;99.90
5621;DHT22;2832;50.864;12.186;2023-08-31T06:40:19;18.80;99.90
5621;DHT22;2832;50.864;12.186;2023-08-31T06:43:00;18.90;99.90
5621;DHT22;2832;50.864;12.186;2023-08-31T06:45:49;18.90;99.90
5621;DHT22;2832;50.864;12.186;2023-08-31T06:48:38;18.90;99.90
5621;DHT22;2832;50.864;12.186;2023-08-31T06:51:08;18.90;99.90
5621;DHT22;2832;50.864;12.186;2023-08-31T06:53:46;18.90;99.90
5621;DHT22;2832;50.864;12.186;2023-08-31T06:56:32;18.90;99.90
5621;DHT22;2832;50.864;12.186;2023-08-31T06:59:05;18.90;99.90
5621;DHT22;2832;50.864;12.186;2023-08-31T07:01:34;18.80;99.90
5621;DHT22;2832;50.864;12.186;2023-08-31T07:04:02;18.80;99.90
5621;DHT22;2832;50.864;12.186;2023-08-31T07:06:33;18.90;99.90
5621;DHT22;2832;50.864;12.186;2023-08-31T07:09:06;18.90;99.90
5621;DHT22;2832;50.864;12.186;2023-08-31T07:11:38;18.90;99.90
5621;DHT22;2832;50.864;12.186;2023-08-31T07:14:11;18.70;99.90
5621;DHT22;2832;50.864;12.186;2023-08-31T07:16:40;18.60;99.90
5621;DHT22;2832;50.864;12.186;2023-08-31T07:19:10;18.40;99.90
5621;DHT22;2832;50.864;12.186;2023-08-31T07:21:50;18.40;99.90
5621;DHT22;2832;50.864;12.186;2023-08-31T07:24:35;18.20;99.90
5621;DHT22;2832;50.864;12.186;2023-08-31T07:27:12;18.20;99.90
5621;DHT22;2832;50.864;12.186;2023-08-31T07:29:44;18.10;99.90
5621;DHT22;2832;50.864;12.186;2023-08-31T07:32:20;18.10;99.90
5621;DHT22;2832;50.864;12.186;2023-08-31T07:34:53;18.10;99.90
5621;DHT22;2832;50.864;12.186;2023-08-31T07:37:24;18.10;99.90
5621;DHT22;2832;50.864;12.186;2023-08-31T07:39:54;18.10;99.90
5621;DHT22;2832;50.864;12.186;2023-08-31T07:42:23;18.00;99.90
5621;DHT22;2832;50.864;12.186;2023-08-31T07:44:58;18.00;99.90
5621;DHT22;2832;50.864;12.186;2023-08-31T07:47:30;18.00;99.90
5621;DHT22;2832;50.864;12.186;2023-08-31T07:50:03;18.00;99.90
5621;DHT22;2832;50.864;12.186;2023-08-31T07:52:31;18.00;99.90
5621;DHT22;2832;50.864;12.186;2023-08-31T07:55:00;18.00;99.90
5621;DHT22;2832;50.864;12.186;2023-08-31T07:57:28;18.00;99.90
5621;DHT22;2832;50.864;12.186;2023-08-31T08:00:01;18.10;99.90
5621;DHT22;2832;50.864;12.186;2023-08-31T08:02:35;18.10;99.90
5621;DHT22;2832;50.864;12.186;2023-08-31T08:05:03;18.00;99.90
5621;DHT22;2832;50.864;12.186;2023-08-31T08:07:34;18.10;99.90
5621;DHT22;2832;50.864;12.186;2023-08-31T08:10:02;18.10;99.90
5621;DHT22;2832;50.864;12.186;2023-08-31T08:12:37;18.00;99.90
5621;DHT22;2832;50.864;12.186;2023-08-31T08:15:12;18.00;99.90
5621;DHT22;2832;50.864;12.186;2023-08-31T08:17:46;18.00;99.90
5621;DHT22;2832;50.864;12.186;2023-08-31T08:20:14;18.00;99.90
5621;DHT22;2832;50.864;12.186;2023-08-31T08:22:49;18.00;99.90
5621;DHT22;2832;50.864;12.186;2023-08-31T08:25:19;18.00;99.90
5621;DHT22;2832;50.864;12.186;2023-08-31T08:27:48;18.00;99.90
5621;DHT22;2832;50.864;12.186;2023-08-31T08:30:21;18.00;99.90
5621;DHT22;2832;50.864;12.186;2023-08-31T08:32:54;18.00;99.90
5621;DHT22;2832;50.864;12.186;2023-08-31T08:35:24;18.00;99.90
5621;DHT22;2832;50.864;12.186;2023-08-31T08:37:54;18.00;99.90
5621;DHT22;2832;50.864;12.186;2023-08-31T08:40:23;18.00;99.90
5621;DHT22;2832;50.864;12.186;2023-08-31T08:42:53;18.10;99.90
5621;DHT22;2832;50.864;12.186;2023-08-31T08:45:24;18.10;99.90
5621;DHT22;2832;50.864;12.186;2023-08-31T08:47:57;18.10;99.90
5621;DHT22;2832;50.864;12.186;2023-08-31T08:50:37;18.00;99.90
5621;DHT22;2832;50.864;12.186;2023-08-31T08:53:16;18.10;99.90
5621;DHT22;2832;50.864;12.186;2023-08-31T08:55:47;18.20;99.90
5621;DHT22;2832;50.864;12.186;2023-08-31T08:58:20;18.10;99.90
5621;DHT22;2832;50.864;12.186;2023-08-31T09:00:51;18.20;99.90
5621;DHT22;2832;50.864;12.186;2023-08-31T09:03:19;18.20;99.90
5621;DHT22;2832;50.864;12.186;2023-08-31T09:05:49;18.20;99.90
5621;DHT22;2832;50.864;12.186;2023-08-31T09:08:17;18.40;99.90
5621;DHT22;2832;50.864;12.186;2023-08-31T09:10:56;18.40;99.90
5621;DHT22;2832;50.864;12.186;2023-08-31T09:13:27;18.50;99.90
5621;DHT22;2832;50.864;12.186;2023-08-31T09:15:58;18.50;99.90
5621;DHT22;2832;50.864;12.186;2023-08-31T09:18:32;18.60;99.90
5621;DHT22;2832;50.864;12.186;2023-08-31T09:21:02;18.60;99.90
5621;DHT22;2832;50.864;12.186;2023-08-31T09:23:30;18.50;99.90
5621;DHT22;2832;50.864;12.186;2023-08-31T09:25:58;18.60;99.90
5621;DHT22;2832;50.864;12.186;2023-08-31T09:28:28;18.70;99.90
5621;DHT22;2832;50.864;12.186;2023-08-31T09:31:05;18.70;99.90
5621;DHT22;2832;50.864;12.186;2023-08-31T09:33:37;18.70;99.90
5621;DHT22;2832;50.864;12.186;2023-08-31T09:36:07;18.60;99.90
5621;DHT22;2832;50.864;12.186;2023-08-31T09:38:44;18.60;99.90
5621;DHT22;2832;50.864;12.186;2023-08-31T09:41:22;18.60;99.90
5621;DHT22;2832;50.864;12.186;2023-08-31T09:44:17;18.60;99.90
5621;DHT22;2832;50.864;12.186;2023-08-31T09:46:59;18.70;99.90
5621;DHT22;2832;50.864;12.186;2023-08-31T09:49:45;18.70;99.90
5621;DHT22;2832;50.864;12.186;2023-08-31T09:52:28;18.80;99.90
5621;DHT22;2832;50.864;12.186;2023-08-31T09:55:06;18.80;99.90
5621;DHT22;2832;50.864;12.186;2023-08-31T09:57:48;18.80;99.90
5621;DHT22;2832;50.864;12.186;2023-08-31T10:00:33;18.90;99.60
5621;DHT22;2832;50.864;12.186;2023-08-31T10:03:15;19.00;99.40
5621;DHT22;2832;50.864;12.186;2023-08-31T10:05:51;19.00;99.30
5621;DHT22;2832;50.864;12.186;2023-08-31T10:08:33;19.00;99.20
5621;DHT22;2832;50.864;12.186;2023-08-31T10:11:08;19.00;99.10
5621;DHT22;2832;50.864;12.186;2023-08-31T10:13:41;19.00;99.20
5621;DHT22;2832;50.864;12.186;2023-08-31T10:16:22;19.00;99.30
5621;DHT22;2832;50.864;12.186;2023-08-31T10:19:02;19.10;99.40
5621;DHT22;2832;50.864;12.186;2023-08-31T10:21:33;19.10;99.00
5621;DHT22;2832;50.864;12.186;2023-08-31T10:24:07;19.10;99.00
5621;DHT22;2832;50.864;12.186;2023-08-31T10:26:49;19.20;99.00
5621;DHT22;2832;50.864;12.186;2023-08-31T10:29:51;19.20;99.10
5621;DHT22;2832;50.864;12.186;2023-08-31T10:32:34;19.20;98.70
5621;DHT22;2832;50.864;12.186;2023-08-31T10:35:18;19.20;98.80
5621;DHT22;2832;50.864;12.186;2023-08-31T10:37:50;19.30;98.80
5621;DHT22;2832;50.864;12.186;2023-08-31T10:40:19;19.30;98.70
5621;DHT22;2832;50.864;12.186;2023-08-31T10:43:18;19.30;98.40
5621;DHT22;2832;50.864;12.186;2023-08-31T10:45:46;19.30;98.20
5621;DHT22;2832;50.864;12.186;2023-08-31T10:48:26;19.20;98.10
5621;DHT22;2832;50.864;12.186;2023-08-31T10:51:03;19.30;97.90
5621;DHT22;2832;50.864;12.186;2023-08-31T10:53:45;19.30;97.90
5621;DHT22;2832;50.864;12.186;2023-08-31T10:56:16;19.30;97.90
5621;DHT22;2832;50.864;12.186;2023-08-31T10:59:01;19.30;97.90
5621;DHT22;2832;50.864;12.186;2023-08-31T11:02:02;19.40;97.90
5621;DHT22;2832;50.864;12.186;2023-08-31T11:04:53;19.40;97.60
5621;DHT22;2832;50.864;12.186;2023-08-31T11:07:27;19.50;97.70
5621;DHT22;2832;50.864;12.186;2023-08-31T11:10:13;19.40;97.40
5621;DHT22;2832;50.864;12.186;2023-08-31T11:12:56;19.40;97.40
5621;DHT22;2832;50.864;12.186;2023-08-31T11:15:29;19.50;97.50
5621;DHT22;2832;50.864;12.186;2023-08-31T11:18:00;19.50;97.50
5621;DHT22;2832;50.864;12.186;2023-08-31T11:20:33;19.50;97.40
5621;DHT22;2832;50.864;12.186;2023-08-31T11:23:06;19.50;97.40
5621;DHT22;2832;50.864;12.186;2023-08-31T11:25:38;19.50;97.40
5621;DHT22;2832;50.864;12.186;2023-08-31T11:28:09;19.60;97.40
5621;DHT22;2832;50.864;12.186;2023-08-31T11:30:44;19.60;97.30
5621;DHT22;2832;50.864;12.186;2023-08-31T11:33:27;19.60;97.20
5621;DHT22;2832;50.864;12.186;2023-08-31T11:35:59;19.60;97.20
5621;DHT22;2832;50.864;12.186;2023-08-31T11:38:31;19.60;97.20
5621;DHT22;2832;50.864;12.186;2023-08-31T11:41:04;19.70;97.20
5621;DHT22;2832;50.864;12.186;2023-08-31T11:43:36;19.70;97.10
5621;DHT22;2832;50.864;12.186;2023-08-31T11:46:07;19.70;97.00
5621;DHT22;2832;50.864;12.186;2023-08-31T11:48:41;19.70;96.90
5621;DHT22;2832;50.864;12.186;2023-08-31T11:51:14;19.70;96.70
5621;DHT22;2832;50.864;12.186;2023-08-31T11:53:44;19.80;96.60
5621;DHT22;2832;50.864;12.186;2023-08-31T11:56:22;19.70;96.40
5621;DHT22;2832;50.864;12.186;2023-08-31T11:59:09;19.70;96.30
5621;DHT22;2832;50.864;12.186;2023-08-31T12:01:50;19.80;96.30
5621;DHT22;2832;50.864;12.186;2023-08-31T12:04:26;19.70;96.20
5621;DHT22;2832;50.864;12.186;2023-08-31T12:07:03;19.80;96.40
5621;DHT22;2832;50.864;12.186;2023-08-31T12:09:59;19.80;96.40
5621;DHT22;2832;50.864;12.186;2023-08-31T12:12:37;19.80;96.40
5621;DHT22;2832;50.864;12.186;2023-08-31T12:15:12;19.90;96.30
5621;DHT22;2832;50.864;12.186;2023-08-31T12:17:48;19.90;96.30
5621;DHT22;2832;50.864;12.186;2023-08-31T12:20:28;20.00;96.20
5621;DHT22;2832;50.864;12.186;2023-08-31T12:23:12;20.00;96.20
5621;DHT22;2832;50.864;12.186;2023-08-31T12:25:50;20.00;96.20
5621;DHT22;2832;50.864;12.186;2023-08-31T12:28:22;20.00;96.20
5621;DHT22;2832;50.864;12.186;2023-08-31T12:30:53;20.00;96.30
5621;DHT22;2832;50.864;12.186;2023-08-31T12:33:25;20.00;96.30
5621;DHT22;2832;50.864;12.186;2023-08-31T12:35:54;20.00;96.30
5621;DHT22;2832;50.864;12.186;2023-08-31T12:38:26;20.00;96.40
5621;DHT22;2832;50.864;12.186;2023-08-31T12:41:01;20.00;96.30
5621;DHT22;2832;50.864;12.186;2023-08-31T12:43:30;20.10;96.30
5621;DHT22;2832;50.864;12.186;2023-08-31T12:46:00;20.20;96.20
5621;DHT22;2832;50.864;12.186;2023-08-31T12:48:34;20.20;96.10
5621;DHT22;2832;50.864;12.186;2023-08-31T12:51:02;20.20;96.10
5621;DHT22;2832;50.864;12.186;2023-08-31T12:53:38;20.20;96.00
5621;DHT22;2832;50.864;12.186;2023-08-31T12:56:09;20.20;96.10
5621;DHT22;2832;50.864;12.186;2023-08-31T12:58:46;20.20;96.00
5621;DHT22;2832;50.864;12.186;2023-08-31T13:01:18;20.30;95.90
5621;DHT22;2832;50.864;12.186;2023-08-31T13:03:54;20.20;95.70
5621;DHT22;2832;50.864;12.186;2023-08-31T13:06:26;20.20;95.80
5621;DHT22;2832;50.864;12.186;2023-08-31T13:09:04;20.20;95.80
5621;DHT22;2832;50.864;12.186;2023-08-31T13:11:41;20.30;95.70
5621;DHT22;2832;50.864;12.186;2023-08-31T13:14:16;20.30;95.60
5621;DHT22;2832;50.864;12.186;2023-08-31T13:16:53;20.30;95.50
5621;DHT22;2832;50.864;12.186;2023-08-31T13:19:31;20.30;95.40
5621;DHT22;2832;50.864;12.186;2023-08-31T13:22:10;20.30;95.30
5621;DHT22;2832;50.864;12.186;2023-08-31T13:24:42;20.30;95.00
5621;DHT22;2832;50.864;12.186;2023-08-31T13:27:24;20.30;94.80
5621;DHT22;2832;50.864;12.186;2023-08-31T13:30:06;20.30;94.60
5621;DHT22;2832;50.864;12.186;2023-08-31T13:32:36;20.30;94.40
5621;DHT22;2832;50.864;12.186;2023-08-31T13:35:07;20.40;94.30
5621;DHT22;2832;50.864;12.186;2023-08-31T13:37:37;20.30;94.20
5621;DHT22;2832;50.864;12.186;2023-08-31T13:40:20;20.30;94.20
5621;DHT22;2832;50.864;12.186;2023-08-31T13:43:15;20.40;94.30
5621;DHT22;2832;50.864;12.186;2023-08-31T13:46:18;20.30;94.30
5621;DHT22;2832;50.864;12.186;2023-08-31T13:48:56;20.40;94.40
5621;DHT22;2832;50.864;12.186;2023-08-31T13:51:32;20.40;94.60
5621;DHT22;2832;50.864;12.186;2023-08-31T13:54:08;20.40;94.50
5621;DHT22;2832;50.864;12.186;2023-08-31T13:56:43;20.40;94.40
5621;DHT22;2832;50.864;12.186;2023-08-31T13:59:18;20.40;94.40
5621;DHT22;2832;50.864;12.186;2023-08-31T14:02:04;20.40;94.20
5621;DHT22;2832;50.864;12.186;2023-08-31T14:04:51;20.50;94.20
5621;DHT22;2832;50.864;12.186;2023-08-31T14:07:27;20.40;94.10
5621;DHT22;2832;50.864;12.186;2023-08-31T14:09:55;20.50;94.10
5621;DHT22;2832;50.864;12.186;2023-08-31T14:12:24;20.40;94.10
5621;DHT22;2832;50.864;12.186;2023-08-31T14:14:53;20.40;94.20
5621;DHT22;2832;50.864;12.186;2023-08-31T14:17:23;20.40;94.00
5621;DHT22;2832;50.864;12.186;2023-08-31T14:19:52;20.40;94.00
5621;DHT22;2832;50.864;12.186;2023-08-31T14:22:21;20.50;94.00
5621;DHT22;2832;50.864;12.186;2023-08-31T14:25:08;20.50;94.10
5621;DHT22;2832;50.864;12.186;2023-08-31T14:28:03;20.50;94.10
5621;DHT22;2832;50.864;12.186;2023-08-31T14:30:39;20.50;94.10
5621;DHT22;2832;50.864;12.186;2023-08-31T14:33:08;20.60;94.30
5621;DHT22;2832;50.864;12.186;2023-08-31T14:35:38;20.50;94.30
5621;DHT22;2832;50.864;12.186;2023-08-31T14:38:11;20.50;94.30
5621;DHT22;2832;50.864;12.186;2023-08-31T14:40:43;20.50;94.40
5621;DHT22;2832;50.864;12.186;2023-08-31T14:43:19;20.60;94.50
5621;DHT22;2832;50.864;12.186;2023-08-31T14:45:54;20.60;94.60
5621;DHT22;2832;50.864;12.186;2023-08-31T14:48:27;20.50;94.60
5621;DHT22;2832;50.864;12.186;2023-08-31T14:50:55;20.60;94.70
5621;DHT22;2832;50.864;12.186;2023-08-31T14:53:26;20.60;94.60
5621;DHT22;2832;50.864;12.186;2023-08-31T14:55:56;20.60;94.70
5621;DHT22;2832;50.864;12.186;2023-08-31T14:58:27;20.50;94.70
5621;DHT22;2832;50.864;12.186;2023-08-31T15:00:58;20.50;94.70
5621;DHT22;2832;50.864;12.186;2023-08-31T15:03:29;20.50;94.70
5621;DHT22;2832;50.864;12.186;2023-08-31T15:06:04;20.60;94.70
5621;DHT22;2832;50.864;12.186;2023-08-31T15:08:47;20.60;94.60
5621;DHT22;2832;50.864;12.186;2023-08-31T15:11:20;20.70;94.60
5621;DHT22;2832;50.864;12.186;2023-08-31T15:13:54;20.70;94.60
5621;DHT22;2832;50.864;12.186;2023-08-31T15:16:25;20.70;94.60
5621;DHT22;2832;50.864;12.186;2023-08-31T15:18:56;20.60;94.60
5621;DHT22;2832;50.864;12.186;2023-08-31T15:21:25;20.60;94.60
5621;DHT22;2832;50.864;12.186;2023-08-31T15:23:55;20.60;94.70
5621;DHT22;2832;50.864;12.186;2023-08-31T15:26:45;20.60;94.70
5621;DHT22;2832;50.864;12.186;2023-08-31T15:29:13;20.70;94.70
5621;DHT22;2832;50.864;12.186;2023-08-31T15:31:43;20.70;94.70
5621;DHT22;2832;50.864;12.186;2023-08-31T15:34:12;20.70;94.60
5621;DHT22;2832;50.864;12.186;2023-08-31T15:36:47;20.60;94.60
5621;DHT22;2832;50.864;12.186;2023-08-31T15:39:22;20.70;94.60
5621;DHT22;2832;50.864;12.186;2023-08-31T15:41:58;20.70;94.40
5621;DHT22;2832;50.864;12.186;2023-08-31T15:44:32;20.70;94.40
5621;DHT22;2832;50.864;12.186;2023-08-31T15:47:05;20.70;94.40
5621;DHT22;2832;50.864;12.186;2023-08-31T15:49:33;20.70;94.40
5621;DHT22;2832;50.864;12.186;2023-08-31T15:52:04;20.70;94.40
5621;DHT22;2832;50.864;12.186;2023-08-31T15:54:36;20.80;94.40
5621;DHT22;2832;50.864;12.186;2023-08-31T15:57:09;20.70;94.40
5621;DHT22;2832;50.864;12.186;2023-08-31T15:59:42;20.70;94.40
5621;DHT22;2832;50.864;12.186;2023-08-31T16:02:26;20.70;94.60
5621;DHT22;2832;50.864;12.186;2023-08-31T16:05:11;20.80;94.50
5621;DHT22;2832;50.864;12.186;2023-08-31T16:07:43;20.70;94.40
5621;DHT22;2832;50.864;12.186;2023-08-31T16:10:24;20.70;94.40
5621;DHT22;2832;50.864;12.186;2023-08-31T16:13:04;20.80;94.50
5621;DHT22;2832;50.864;12.186;2023-08-31T16:15:46;20.70;94.40
5621;DHT22;2832;50.864;12.186;2023-08-31T16:18:22;20.70;94.30
5621;DHT22;2832;50.864;12.186;2023-08-31T16:20:54;20.70;94.30
5621;DHT22;2832;50.864;12.186;2023-08-31T16:23:28;20.70;94.20
5621;DHT22;2832;50.864;12.186;2023-08-31T16:26:01;20.60;94.30
5621;DHT22;2832;50.864;12.186;2023-08-31T16:28:33;20.70;94.50